createdAt,value
2023-04-04T00:01:16.889Z,12.47
2023-04-04T00:03:45.349Z,13.03
2023-04-04T00:06:13.736Z,12.37
2023-04-04T00:08:41.993Z,12.57
2023-04-04T00:11:10.387Z,12.93
2023-04-04T00:13:40.345Z,11.43
2023-04-04T00:16:09.115Z,12.37
2023-04-04T00:18:37.410Z,11.20
2023-04-04T00:21:06.008Z,13.23
2023-04-04T00:23:34.313Z,11.67
2023-04-04T00:26:02.632Z,11.10
2023-04-04T00:28:31.210Z,11.10
2023-04-04T00:31:02.239Z,10.43
2023-04-04T00:33:30.603Z,10.60
2023-04-04T00:35:59.726Z,11.70
2023-04-04T00:38:29.640Z,12.33
2023-04-04T00:41:00.603Z,9.97
2023-04-04T00:43:29.016Z,10.53
2023-04-04T00:45:58.118Z,10.87
2023-04-04T00:48:28.045Z,10.70
2023-04-04T00:50:56.919Z,11.10
2023-04-04T00:53:25.209Z,11.17
2023-04-04T00:55:53.726Z,12.40
2023-04-04T00:58:22.598Z,11.30
2023-04-04T01:00:52.046Z,10.87
2023-04-04T01:03:20.463Z,10.60
2023-04-04T01:05:50.245Z,12.37
2023-04-04T01:08:24.318Z,11.03
2023-04-04T01:10:54.067Z,9.90
2023-04-04T01:13:23.467Z,9.80
2023-04-04T01:15:54.091Z,12.17
2023-04-04T01:18:25.100Z,10.30
2023-04-04T01:21:00.130Z,11.00
2023-04-04T01:23:37.387Z,8.50
2023-04-04T01:26:09.539Z,9.90
2023-04-04T01:28:38.238Z,12.77
2023-04-04T01:31:13.836Z,9.23
2023-04-04T01:33:47.022Z,9.50
2023-04-04T01:36:29.993Z,8.57
2023-04-04T01:39:03.174Z,9.50
2023-04-04T01:41:35.129Z,9.67
2023-04-04T01:44:04.994Z,10.27
2023-04-04T01:46:33.817Z,9.27
2023-04-04T01:49:02.303Z,9.57
2023-04-04T01:51:35.138Z,11.23
2023-04-04T01:54:03.622Z,9.97
2023-04-04T01:56:34.042Z,9.40
2023-04-04T01:59:02.530Z,10.23
2023-04-04T02:01:31.036Z,9.60
2023-04-04T02:03:59.376Z,9.10
2023-04-04T02:06:28.194Z,9.27
2023-04-04T02:08:57.244Z,9.90
2023-04-04T02:11:27.122Z,10.43
2023-04-04T02:13:57.251Z,11.47
2023-04-04T02:16:28.547Z,10.27
2023-04-04T02:18:57.101Z,11.27
2023-04-04T02:21:27.239Z,11.27
2023-04-04T02:23:55.570Z,10.53
2023-04-04T02:26:23.967Z,10.70
2023-04-04T02:28:52.250Z,10.33
2023-04-04T02:31:22.053Z,9.60
2023-04-04T02:33:50.327Z,9.80
2023-04-04T02:36:21.216Z,9.20
2023-04-04T02:38:51.832Z,10.03
2023-04-04T02:41:21.882Z,10.00
2023-04-04T02:43:50.208Z,9.40
2023-04-04T02:46:22.158Z,10.37
2023-04-04T02:48:57.424Z,9.57
2023-04-04T02:51:26.459Z,10.13
2023-04-04T02:53:58.873Z,10.20
2023-04-04T02:56:33.629Z,9.77
2023-04-04T02:59:02.194Z,10.60
2023-04-04T03:01:32.423Z,10.23
2023-04-04T03:04:04.576Z,10.67
2023-04-04T03:06:34.610Z,10.90
2023-04-04T03:09:04.950Z,10.23
2023-04-04T03:11:33.525Z,11.00
2023-04-04T03:14:02.349Z,10.60
2023-04-04T03:16:37.625Z,11.63
2023-04-04T03:19:06.297Z,8.93
2023-04-04T03:21:34.577Z,10.43
2023-04-04T03:24:03.251Z,9.80
2023-04-04T03:26:31.500Z,10.57
2023-04-04T03:28:59.975Z,10.37
2023-04-04T03:31:28.493Z,10.03
2023-04-04T03:34:02.583Z,10.57
2023-04-04T03:36:31.373Z,9.63
2023-04-04T03:38:59.697Z,9.20
2023-04-04T03:41:28.059Z,12.17
2023-04-04T03:43:58.719Z,11.17
2023-04-04T03:46:27.393Z,11.77
2023-04-04T03:48:57.734Z,10.80
2023-04-04T03:51:26.308Z,10.97
2023-04-04T03:53:55.177Z,11.43
2023-04-04T03:56:24.475Z,12.77
2023-04-04T03:58:55.853Z,10.87
2023-04-04T04:01:24.563Z,12.20
2023-04-04T04:03:53.251Z,10.77
2023-04-04T04:06:23.086Z,12.37
2023-04-04T04:08:51.518Z,12.13
2023-04-04T04:11:19.902Z,10.53
2023-04-04T04:13:48.191Z,12.90
2023-04-04T04:16:16.583Z,11.47
2023-04-04T04:18:45.321Z,11.47
2023-04-04T04:21:19.396Z,10.60
2023-04-04T04:23:49.167Z,11.23
2023-04-04T04:26:17.395Z,14.67
2023-04-04T04:28:48.198Z,12.70
2023-04-04T04:31:20.093Z,10.03
2023-04-04T04:33:51.623Z,12.30
2023-04-04T04:36:22.916Z,12.40
2023-04-04T04:39:00.175Z,13.90
2023-04-04T04:41:31.633Z,11.50
2023-04-04T04:44:02.222Z,12.17
2023-04-04T04:46:31.784Z,11.00
2023-04-04T04:49:01.349Z,11.47
2023-04-04T04:51:32.120Z,11.80
2023-04-04T04:54:02.479Z,11.13
2023-04-04T04:56:32.252Z,11.77
2023-04-04T04:59:09.224Z,12.17
2023-04-04T05:01:39.616Z,11.13
2023-04-04T05:04:08.018Z,12.67
2023-04-04T05:06:45.815Z,12.43
2023-04-04T05:09:16.294Z,16.07
2023-04-04T05:12:39.730Z,14.30
2023-04-04T05:15:29.238Z,12.40
2023-04-04T05:17:58.193Z,12.77
2023-04-04T05:20:27.220Z,13.70
2023-04-04T05:22:56.019Z,15.37
2023-04-04T05:25:35.283Z,15.57
2023-04-04T05:28:03.965Z,14.97
2023-04-04T05:30:33.915Z,13.53
2023-04-04T05:33:12.164Z,15.13
2023-04-04T05:35:45.776Z,12.77
2023-04-04T05:38:16.186Z,13.37
2023-04-04T05:40:47.933Z,14.70
2023-04-04T05:43:16.725Z,13.67
2023-04-04T05:51:23.472Z,13.87
2023-04-04T05:59:01.251Z,14.67
2023-04-04T06:08:53.105Z,15.50
2023-04-04T06:13:09.947Z,12.93
2023-04-04T06:17:01.799Z,13.93
2023-04-04T06:26:22.103Z,11.23
2023-04-04T06:32:58.628Z,12.90
2023-04-04T06:36:14.822Z,14.43
2023-04-04T06:39:15.847Z,14.97
2023-04-04T06:50:20.111Z,13.93
2023-04-04T06:57:18.780Z,13.30
2023-04-04T07:08:55.052Z,13.47
2023-04-04T07:15:00.399Z,15.87
2023-04-04T07:25:52.708Z,13.93
2023-04-04T07:28:38.640Z,14.90
2023-04-04T07:31:09.012Z,13.73
2023-04-04T07:39:19.837Z,12.83
2023-04-04T07:42:38.242Z,12.23
2023-04-04T07:45:30.445Z,12.70
2023-04-04T07:51:41.854Z,13.70
2023-04-04T07:54:34.074Z,10.63
2023-04-04T07:57:35.194Z,11.50
2023-04-04T08:00:30.609Z,10.17
2023-04-04T08:03:06.539Z,10.43
2023-04-04T08:05:48.005Z,10.27
2023-04-04T08:08:24.573Z,9.50
2023-04-04T08:11:02.265Z,9.43
2023-04-04T08:16:17.963Z,8.90
2023-04-04T08:18:49.716Z,8.07
2023-04-04T08:21:19.673Z,8.27
2023-04-04T08:23:48.737Z,10.00
2023-04-04T08:26:43.598Z,8.23
2023-04-04T08:29:31.016Z,11.13
2023-04-04T08:32:04.612Z,7.57
2023-04-04T08:34:34.861Z,9.60
2023-04-04T08:37:03.806Z,7.47
2023-04-04T08:39:32.944Z,7.67
2023-04-04T08:42:06.735Z,6.43
2023-04-04T08:44:36.784Z,7.93
2023-04-04T08:47:09.449Z,6.57
2023-04-04T08:49:40.767Z,9.87
2023-04-04T08:52:13.007Z,7.23
2023-04-04T08:55:10.445Z,7.37
2023-04-04T08:57:43.993Z,8.13
2023-04-04T09:00:18.175Z,6.23
2023-04-04T09:02:59.757Z,5.70
2023-04-04T09:05:38.306Z,6.03
2023-04-04T09:08:18.744Z,6.70
2023-04-04T09:10:48.380Z,5.53
2023-04-04T09:13:17.873Z,6.67
2023-04-04T09:15:52.622Z,7.30
2023-04-04T09:18:28.729Z,5.90
2023-04-04T09:21:01.201Z,5.70
2023-04-04T09:23:33.422Z,6.43
2023-04-04T09:26:05.342Z,5.80
2023-04-04T09:28:35.424Z,9.03
2023-04-04T09:31:12.804Z,6.55
2023-04-04T09:33:46.697Z,6.20
2023-04-04T09:36:20.695Z,6.90
2023-04-04T09:38:50.061Z,7.05
2023-04-04T09:41:24.740Z,5.50
2023-04-04T09:43:59.280Z,6.60
2023-04-04T09:46:40.266Z,5.63
2023-04-04T09:49:22.543Z,6.65
2023-04-04T09:51:54.348Z,6.10
2023-04-04T09:54:29.792Z,6.13
2023-04-04T09:57:02.389Z,6.32
2023-04-04T09:59:31.619Z,6.32
2023-04-04T10:02:05.586Z,6.57
2023-04-04T10:04:38.975Z,6.45
2023-04-04T10:07:15.764Z,5.82
2023-04-04T10:09:52.886Z,6.88
2023-04-04T10:12:24.337Z,6.90
2023-04-04T10:15:00.420Z,7.10
2023-04-04T10:17:34.131Z,7.40
2023-04-04T10:20:15.549Z,7.68
2023-04-04T10:22:51.926Z,7.90
2023-04-04T10:25:24.201Z,6.50
2023-04-04T10:27:55.838Z,6.28
2023-04-04T10:30:24.820Z,6.88
2023-04-04T10:33:01.345Z,6.57
2023-04-04T10:35:36.098Z,5.93
2023-04-04T10:38:07.130Z,5.97
2023-04-04T10:40:40.079Z,7.17
2023-04-04T10:43:09.376Z,6.07
2023-04-04T10:45:42.604Z,4.40
2023-04-04T10:48:12.072Z,6.20
2023-04-04T10:50:54.972Z,7.03
2023-04-04T10:53:25.416Z,5.97
2023-04-04T10:55:57.964Z,7.33
2023-04-04T10:58:27.460Z,5.73
2023-04-04T11:00:58.158Z,6.47
2023-04-04T11:03:27.047Z,5.27
2023-04-04T11:06:02.121Z,5.67
2023-04-04T11:08:30.904Z,5.70
2023-04-04T11:11:05.062Z,5.97
2023-04-04T11:13:41.797Z,6.60
2023-04-04T11:16:16.035Z,6.53
2023-04-04T11:18:49.255Z,7.00
2023-04-04T11:21:25.223Z,6.37
2023-04-04T11:24:17.963Z,5.90
2023-04-04T11:26:47.512Z,8.07
2023-04-04T11:29:47.501Z,5.83
2023-04-04T11:32:50.108Z,7.83
2023-04-04T11:38:23.848Z,5.83
2023-04-04T11:40:56.680Z,5.63
2023-04-04T11:43:27.241Z,6.50
2023-04-04T11:46:06.379Z,7.03
2023-04-04T11:48:35.258Z,6.40
2023-04-04T11:51:05.179Z,6.00
2023-04-04T11:53:35.784Z,6.03
2023-04-04T11:56:04.643Z,6.10
2023-04-04T11:58:37.184Z,5.47
2023-04-04T12:01:06.830Z,5.10
2023-04-04T12:03:37.046Z,5.33
2023-04-04T12:06:06.217Z,5.57
2023-04-04T12:08:36.694Z,6.07
2023-04-04T12:11:10.754Z,6.20
2023-04-04T12:13:45.003Z,7.00
2023-04-04T12:16:13.982Z,6.83
2023-04-04T12:18:42.758Z,6.10
2023-04-04T12:21:12.420Z,7.03
2023-04-04T12:23:42.908Z,7.57
2023-04-04T12:26:11.914Z,7.33
2023-04-04T12:28:41.328Z,6.70
2023-04-04T12:31:12.857Z,7.03
2023-04-04T13:18:37.489Z,6.97
2023-04-04T13:21:08.000Z,7.03
2023-04-04T13:23:37.736Z,7.07
2023-04-04T13:26:08.037Z,6.47
2023-04-04T13:28:37.245Z,6.53
2023-04-04T13:31:06.564Z,6.07
2023-04-04T13:33:36.900Z,6.47
2023-04-04T13:36:06.098Z,5.97
2023-04-04T13:38:34.752Z,6.40
2023-04-04T13:42:19.028Z,5.97
2023-04-04T13:44:50.627Z,6.10
2023-04-04T13:47:22.811Z,6.00
2023-04-04T13:49:52.728Z,6.50
2023-04-04T13:52:22.270Z,6.77
2023-04-04T13:54:51.053Z,6.90
2023-04-04T13:57:19.855Z,5.80
2023-04-04T13:59:49.040Z,4.57
2023-04-04T14:02:17.588Z,6.07
2023-04-04T14:04:49.415Z,6.13
2023-04-04T14:07:20.395Z,6.10
2023-04-04T14:09:48.824Z,5.27
2023-04-04T14:12:17.193Z,5.50
2023-04-04T14:14:45.732Z,5.63
2023-04-04T14:17:14.175Z,5.63
2023-04-04T14:19:44.499Z,6.43
2023-04-04T14:22:13.003Z,7.60
2023-04-04T14:24:42.746Z,4.50
2023-04-04T14:27:11.165Z,6.27
2023-04-04T14:29:52.268Z,5.87
2023-04-04T14:32:20.762Z,6.10
2023-04-04T14:34:49.497Z,6.57
2023-04-04T14:38:21.853Z,5.43
2023-04-04T14:41:00.376Z,7.50
2023-04-04T14:43:29.098Z,7.60
2023-04-04T14:45:57.818Z,5.30
2023-04-04T14:48:28.708Z,5.07
2023-04-04T14:50:57.397Z,6.07
2023-04-04T14:53:28.260Z,5.50
2023-04-04T14:55:58.654Z,6.67
2023-04-04T14:58:27.552Z,5.27
2023-04-04T15:00:56.812Z,5.83
2023-04-04T15:03:26.131Z,5.97
2023-04-04T15:26:27.603Z,6.37
2023-04-04T15:28:56.134Z,4.87
2023-04-04T15:31:26.348Z,7.47
2023-04-04T15:33:59.376Z,7.93
2023-04-04T15:55:22.192Z,6.80
2023-04-04T15:57:57.665Z,8.70
2023-04-04T16:00:50.556Z,6.03
2023-04-04T16:03:48.843Z,6.60
2023-04-04T16:07:05.448Z,6.07
2023-04-04T16:09:47.468Z,6.83
2023-04-04T16:12:21.154Z,7.17
2023-04-04T16:15:31.438Z,6.30
2023-04-04T16:46:11.186Z,6.60
2023-04-04T16:48:40.063Z,6.90
2023-04-04T16:51:10.179Z,8.37
2023-04-04T16:53:41.605Z,7.50
2023-04-04T16:56:11.104Z,8.33
2023-04-04T16:58:40.111Z,7.53
2023-04-04T17:01:10.380Z,8.83
2023-04-04T17:03:39.181Z,10.87
2023-04-04T17:06:08.521Z,10.77
2023-04-04T17:08:38.027Z,9.40
2023-04-04T17:11:13.221Z,8.70
2023-04-04T17:13:47.624Z,10.90
2023-04-04T17:16:23.575Z,10.57
2023-04-04T17:18:52.539Z,10.33
2023-04-04T17:21:26.630Z,9.07
2023-04-04T17:23:56.129Z,9.80
2023-04-04T17:26:27.685Z,9.23
2023-04-04T17:29:00.525Z,8.73
2023-04-04T17:32:29.752Z,9.13
2023-04-04T17:35:18.463Z,10.17
2023-04-04T17:38:08.081Z,8.27
2023-04-04T19:31:34.486Z,11.27
2023-04-04T19:34:09.771Z,11.37
2023-04-04T19:36:39.007Z,11.70
2023-04-04T19:39:10.239Z,13.13
2023-04-04T19:41:42.148Z,12.27
2023-04-04T19:44:19.431Z,11.77
2023-04-04T19:47:01.129Z,12.13
2023-04-04T19:49:30.777Z,14.50
2023-04-04T19:52:00.406Z,11.97
2023-04-04T19:54:58.309Z,12.03
2023-04-04T19:57:27.473Z,12.83
2023-04-04T20:00:01.964Z,12.23
2023-04-04T20:02:51.228Z,13.93
2023-04-04T20:06:06.492Z,13.10
2023-04-04T20:08:44.289Z,13.90
2023-04-04T20:11:18.448Z,13.37
2023-04-04T20:13:54.019Z,13.10
2023-04-04T20:16:22.537Z,13.13
2023-04-04T20:18:53.462Z,13.47
2023-04-04T20:21:23.559Z,15.10
2023-04-04T20:23:53.813Z,12.70
2023-04-04T20:26:51.133Z,13.07
2023-04-04T20:29:22.630Z,11.70
2023-04-04T20:31:53.415Z,15.10
2023-04-04T20:34:38.897Z,15.07
2023-04-04T20:37:10.349Z,13.83
2023-04-04T20:39:41.853Z,14.67
2023-04-04T20:42:20.155Z,14.83
2023-04-04T20:44:48.641Z,14.70
2023-04-04T20:47:38.241Z,16.33
2023-04-04T20:50:42.557Z,21.40
2023-04-04T20:53:20.751Z,13.27
2023-04-04T20:55:50.717Z,14.20
2023-04-04T20:58:30.352Z,14.37
2023-04-04T21:00:59.943Z,22.97
2023-04-04T21:03:35.502Z,15.00
2023-04-04T21:06:12.706Z,14.13
2023-04-04T21:08:46.779Z,13.23
2023-04-04T21:11:19.382Z,12.77
2023-04-04T21:13:48.491Z,15.67
2023-04-04T21:16:18.362Z,14.87
2023-04-04T21:18:47.218Z,14.53
2023-04-04T21:21:18.871Z,15.47
2023-04-04T21:23:50.593Z,14.67
2023-04-04T21:26:34.029Z,13.23
2023-04-04T21:29:04.773Z,14.90
2023-04-04T21:31:38.871Z,14.17
2023-04-04T21:34:12.879Z,13.83
2023-04-04T21:36:43.083Z,13.53
2023-04-04T21:39:13.962Z,14.70
2023-04-04T21:41:43.990Z,13.23
2023-04-04T21:44:12.407Z,13.97
2023-04-04T21:46:41.728Z,13.10
2023-04-04T21:49:10.984Z,14.17
2023-04-04T21:51:39.371Z,14.77
2023-04-04T21:54:09.150Z,16.07
2023-04-04T21:56:38.539Z,13.60
2023-04-04T21:59:09.180Z,15.83
2023-04-04T22:01:38.707Z,14.67
2023-04-04T22:04:07.187Z,13.40
2023-04-04T22:06:36.333Z,16.30
2023-04-04T22:09:05.632Z,13.60
2023-04-04T22:11:38.953Z,13.67
2023-04-04T22:14:08.091Z,14.23
2023-04-04T22:16:39.779Z,15.97
2023-04-04T22:19:11.030Z,13.90
2023-04-04T22:21:47.890Z,12.17
2023-04-04T22:24:18.315Z,13.87
2023-04-04T22:26:50.509Z,16.17
2023-04-04T22:29:18.875Z,15.57
2023-04-04T22:31:47.276Z,14.70
2023-04-04T22:34:15.795Z,14.07
2023-04-04T22:36:47.035Z,12.90
2023-04-04T22:39:16.490Z,15.00
2023-04-04T22:41:45.502Z,15.03
2023-04-04T22:44:15.502Z,14.37
2023-04-04T22:46:43.768Z,14.63
2023-04-04T22:49:13.323Z,14.37
2023-04-04T22:51:45.721Z,14.43
2023-04-04T22:54:15.937Z,14.37
2023-04-04T22:56:44.697Z,14.53
2023-04-04T22:59:14.534Z,17.37
2023-04-04T23:01:43.066Z,13.63
2023-04-04T23:04:11.724Z,15.43
2023-04-04T23:06:40.049Z,14.50
2023-04-04T23:09:08.888Z,14.43
2023-04-04T23:11:38.517Z,13.07
2023-04-04T23:14:09.282Z,15.60
2023-04-04T23:16:39.936Z,15.33
2023-04-04T23:19:08.327Z,13.77
2023-04-04T23:21:38.128Z,14.27
2023-04-04T23:24:08.247Z,15.63
2023-04-04T23:26:36.613Z,12.27
2023-04-04T23:29:05.734Z,14.90
2023-04-04T23:31:34.197Z,15.83
2023-04-04T23:34:03.877Z,16.23
2023-04-04T23:36:32.386Z,15.03
2023-04-04T23:39:00.687Z,15.37
2023-04-04T23:41:28.962Z,15.53
2023-04-04T23:43:57.147Z,16.47
2023-04-04T23:46:26.180Z,16.43
2023-04-04T23:48:54.528Z,16.13
2023-04-04T23:51:26.227Z,16.50
2023-04-04T23:53:54.551Z,14.50
2023-04-04T23:56:22.845Z,17.23
2023-04-04T23:58:51.225Z,15.80
